sensor_id;sensor_type;location;lat;lon;timestamp;temperature;humidity
13998;DHT22;7074;51.508;7.018;2022-07-18T00:01:10;20.10;99.90
13998;DHT22;7074;51.508;7.018;2022-07-18T00:03:37;20.10;99.90
13998;DHT22;7074;51.508;7.018;2022-07-18T00:06:04;20.00;99.90
13998;DHT22;7074;51.508;7.018;2022-07-18T00:08:31;20.00;99.90
13998;DHT22;7074;51.508;7.018;2022-07-18T00:10:59;20.00;99.90
13998;DHT22;7074;51.508;7.018;2022-07-18T00:13:26;20.00;99.90
13998;DHT22;7074;51.508;7.018;2022-07-18T00:15:53;19.90;99.90
13998;DHT22;7074;51.508;7.018;2022-07-18T00:18:22;19.90;99.90
13998;DHT22;7074;51.508;7.018;2022-07-18T00:20:49;19.80;99.90
13998;DHT22;7074;51.508;7.018;2022-07-18T00:23:16;19.80;99.90
13998;DHT22;7074;51.508;7.018;2022-07-18T00:25:43;19.70;99.90
13998;DHT22;7074;51.508;7.018;2022-07-18T00:28:11;19.60;99.90
13998;DHT22;7074;51.508;7.018;2022-07-18T00:30:38;19.50;99.90
13998;DHT22;7074;51.508;7.018;2022-07-18T00:33:05;19.50;99.90
13998;DHT22;7074;51.508;7.018;2022-07-18T00:35:34;19.50;99.90
13998;DHT22;7074;51.508;7.018;2022-07-18T00:38:02;19.60;99.90
13998;DHT22;7074;51.508;7.018;2022-07-18T00:40:29;19.50;99.90
13998;DHT22;7074;51.508;7.018;2022-07-18T00:42:57;19.50;99.90
13998;DHT22;7074;51.508;7.018;2022-07-18T00:45:24;19.50;99.90
13998;DHT22;7074;51.508;7.018;2022-07-18T00:47:51;19.50;99.90
13998;DHT22;7074;51.508;7.018;2022-07-18T00:50:20;19.50;99.90
13998;DHT22;7074;51.508;7.018;2022-07-18T00:52:50;19.50;99.90
13998;DHT22;7074;51.508;7.018;2022-07-18T00:55:17;19.50;99.90
13998;DHT22;7074;51.508;7.018;2022-07-18T00:57:45;19.40;99.90
13998;DHT22;7074;51.508;7.018;2022-07-18T01:00:13;19.40;99.90
13998;DHT22;7074;51.508;7.018;2022-07-18T01:02:59;19.40;99.90
13998;DHT22;7074;51.508;7.018;2022-07-18T01:05:26;19.40;99.90
13998;DHT22;7074;51.508;7.018;2022-07-18T01:07:55;19.40;99.90
13998;DHT22;7074;51.508;7.018;2022-07-18T01:10:22;19.30;99.90
13998;DHT22;7074;51.508;7.018;2022-07-18T01:12:50;19.30;99.90
13998;DHT22;7074;51.508;7.018;2022-07-18T01:15:17;19.20;99.90
13998;DHT22;7074;51.508;7.018;2022-07-18T01:17:44;19.10;99.90
13998;DHT22;7074;51.508;7.018;2022-07-18T01:20:12;19.10;99.90
13998;DHT22;7074;51.508;7.018;2022-07-18T01:22:41;19.10;99.90
13998;DHT22;7074;51.508;7.018;2022-07-18T01:25:09;19.00;99.90
13998;DHT22;7074;51.508;7.018;2022-07-18T01:27:37;19.00;99.90
13998;DHT22;7074;51.508;7.018;2022-07-18T01:30:05;19.00;99.90
13998;DHT22;7074;51.508;7.018;2022-07-18T01:32:34;18.90;99.90
13998;DHT22;7074;51.508;7.018;2022-07-18T01:35:02;18.90;99.90
13998;DHT22;7074;51.508;7.018;2022-07-18T01:37:30;19.00;99.90
13998;DHT22;7074;51.508;7.018;2022-07-18T01:39:58;18.90;99.90
13998;DHT22;7074;51.508;7.018;2022-07-18T01:42:25;18.80;99.90
13998;DHT22;7074;51.508;7.018;2022-07-18T01:44:53;18.80;99.90
13998;DHT22;7074;51.508;7.018;2022-07-18T01:47:20;18.90;99.90
13998;DHT22;7074;51.508;7.018;2022-07-18T01:49:47;18.80;99.90
13998;DHT22;7074;51.508;7.018;2022-07-18T01:52:14;18.80;99.90
13998;DHT22;7074;51.508;7.018;2022-07-18T01:54:41;18.70;99.90
13998;DHT22;7074;51.508;7.018;2022-07-18T01:57:10;18.80;99.90
13998;DHT22;7074;51.508;7.018;2022-07-18T01:59:37;18.70;99.90
13998;DHT22;7074;51.508;7.018;2022-07-18T02:02:05;18.80;99.90
13998;DHT22;7074;51.508;7.018;2022-07-18T02:04:35;18.70;99.90
13998;DHT22;7074;51.508;7.018;2022-07-18T02:07:19;18.70;99.90
13998;DHT22;7074;51.508;7.018;2022-07-18T02:09:47;18.70;99.90
13998;DHT22;7074;51.508;7.018;2022-07-18T02:12:16;18.60;99.90
13998;DHT22;7074;51.508;7.018;2022-07-18T02:14:43;18.50;99.90
13998;DHT22;7074;51.508;7.018;2022-07-18T02:17:11;18.60;99.90
13998;DHT22;7074;51.508;7.018;2022-07-18T02:19:38;18.60;99.90
13998;DHT22;7074;51.508;7.018;2022-07-18T02:22:05;18.60;99.90
13998;DHT22;7074;51.508;7.018;2022-07-18T02:24:32;18.50;99.90
13998;DHT22;7074;51.508;7.018;2022-07-18T02:27:00;18.50;99.90
13998;DHT22;7074;51.508;7.018;2022-07-18T02:29:28;18.40;99.90
13998;DHT22;7074;51.508;7.018;2022-07-18T02:31:55;18.40;99.90
13998;DHT22;7074;51.508;7.018;2022-07-18T02:34:23;18.40;99.90
13998;DHT22;7074;51.508;7.018;2022-07-18T02:36:51;18.30;99.90
13998;DHT22;7074;51.508;7.018;2022-07-18T02:39:19;18.30;99.90
13998;DHT22;7074;51.508;7.018;2022-07-18T02:41:46;18.30;99.90
13998;DHT22;7074;51.508;7.018;2022-07-18T02:44:14;18.20;99.90
13998;DHT22;7074;51.508;7.018;2022-07-18T02:46:42;18.20;99.90
13998;DHT22;7074;51.508;7.018;2022-07-18T02:49:10;18.20;99.90
13998;DHT22;7074;51.508;7.018;2022-07-18T02:51:53;18.20;99.90
13998;DHT22;7074;51.508;7.018;2022-07-18T02:54:21;18.10;99.90
13998;DHT22;7074;51.508;7.018;2022-07-18T02:56:48;18.10;99.90
13998;DHT22;7074;51.508;7.018;2022-07-18T02:59:15;18.00;99.90
13998;DHT22;7074;51.508;7.018;2022-07-18T03:01:44;17.90;99.90
13998;DHT22;7074;51.508;7.018;2022-07-18T03:04:11;17.90;99.90
13998;DHT22;7074;51.508;7.018;2022-07-18T03:06:38;17.80;99.90
13998;DHT22;7074;51.508;7.018;2022-07-18T03:09:05;17.90;99.90
13998;DHT22;7074;51.508;7.018;2022-07-18T03:11:32;17.90;99.90
13998;DHT22;7074;51.508;7.018;2022-07-18T03:14:00;18.00;99.90
13998;DHT22;7074;51.508;7.018;2022-07-18T03:16:27;17.90;99.90
13998;DHT22;7074;51.508;7.018;2022-07-18T03:18:56;17.90;99.90
13998;DHT22;7074;51.508;7.018;2022-07-18T03:21:23;17.80;99.90
13998;DHT22;7074;51.508;7.018;2022-07-18T03:23:50;17.80;99.90
13998;DHT22;7074;51.508;7.018;2022-07-18T03:26:18;17.80;99.90
13998;DHT22;7074;51.508;7.018;2022-07-18T03:28:45;17.80;99.90
13998;DHT22;7074;51.508;7.018;2022-07-18T03:31:13;17.70;99.90
13998;DHT22;7074;51.508;7.018;2022-07-18T03:33:40;17.70;99.90
13998;DHT22;7074;51.508;7.018;2022-07-18T03:36:09;17.70;99.90
13998;DHT22;7074;51.508;7.018;2022-07-18T03:38:36;17.70;99.90
13998;DHT22;7074;51.508;7.018;2022-07-18T03:41:03;17.70;99.90
13998;DHT22;7074;51.508;7.018;2022-07-18T03:43:31;17.70;99.90
13998;DHT22;7074;51.508;7.018;2022-07-18T03:45:58;17.70;99.90
13998;DHT22;7074;51.508;7.018;2022-07-18T03:48:25;17.60;99.90
13998;DHT22;7074;51.508;7.018;2022-07-18T03:50:53;17.60;99.90
13998;DHT22;7074;51.508;7.018;2022-07-18T03:53:22;17.50;99.90
13998;DHT22;7074;51.508;7.018;2022-07-18T03:55:49;17.60;99.90
13998;DHT22;7074;51.508;7.018;2022-07-18T03:58:16;17.60;99.90
13998;DHT22;7074;51.508;7.018;2022-07-18T04:00:43;17.60;99.90
13998;DHT22;7074;51.508;7.018;2022-07-18T04:03:10;17.50;99.90
13998;DHT22;7074;51.508;7.018;2022-07-18T04:05:38;17.50;99.90
13998;DHT22;7074;51.508;7.018;2022-07-18T04:08:05;17.60;99.90
13998;DHT22;7074;51.508;7.018;2022-07-18T04:10:34;17.70;99.90
13998;DHT22;7074;51.508;7.018;2022-07-18T04:13:06;17.70;99.90
13998;DHT22;7074;51.508;7.018;2022-07-18T04:15:33;17.70;99.90
13998;DHT22;7074;51.508;7.018;2022-07-18T04:18:01;17.70;99.90
13998;DHT22;7074;51.508;7.018;2022-07-18T04:20:29;17.70;99.90
13998;DHT22;7074;51.508;7.018;2022-07-18T04:22:57;17.60;99.90
13998;DHT22;7074;51.508;7.018;2022-07-18T04:25:26;17.70;99.90
13998;DHT22;7074;51.508;7.018;2022-07-18T04:27:55;17.70;99.90
13998;DHT22;7074;51.508;7.018;2022-07-18T04:30:24;17.70;99.90
13998;DHT22;7074;51.508;7.018;2022-07-18T04:32:52;17.70;99.90
13998;DHT22;7074;51.508;7.018;2022-07-18T04:35:20;17.80;99.90
13998;DHT22;7074;51.508;7.018;2022-07-18T04:37:48;17.80;99.90
13998;DHT22;7074;51.508;7.018;2022-07-18T04:40:15;17.80;99.90
13998;DHT22;7074;51.508;7.018;2022-07-18T04:42:42;17.80;99.90
13998;DHT22;7074;51.508;7.018;2022-07-18T04:45:12;17.80;99.90
13998;DHT22;7074;51.508;7.018;2022-07-18T04:47:39;17.80;99.90
13998;DHT22;7074;51.508;7.018;2022-07-18T04:50:07;17.90;99.90
13998;DHT22;7074;51.508;7.018;2022-07-18T04:52:38;18.00;99.90
13998;DHT22;7074;51.508;7.018;2022-07-18T04:55:07;18.00;99.90
13998;DHT22;7074;51.508;7.018;2022-07-18T04:57:36;18.10;99.90
13998;DHT22;7074;51.508;7.018;2022-07-18T05:00:05;18.20;99.90
13998;DHT22;7074;51.508;7.018;2022-07-18T05:02:34;18.30;99.90
13998;DHT22;7074;51.508;7.018;2022-07-18T05:05:01;18.50;99.90
13998;DHT22;7074;51.508;7.018;2022-07-18T05:07:29;18.60;99.90
13998;DHT22;7074;51.508;7.018;2022-07-18T05:09:56;18.70;99.90
13998;DHT22;7074;51.508;7.018;2022-07-18T05:12:23;18.80;99.90
13998;DHT22;7074;51.508;7.018;2022-07-18T05:14:50;18.80;99.90
13998;DHT22;7074;51.508;7.018;2022-07-18T05:17:18;18.90;99.90
13998;DHT22;7074;51.508;7.018;2022-07-18T05:19:46;19.00;99.90
13998;DHT22;7074;51.508;7.018;2022-07-18T05:22:13;19.00;99.90
13998;DHT22;7074;51.508;7.018;2022-07-18T05:24:41;19.10;99.90
13998;DHT22;7074;51.508;7.018;2022-07-18T05:27:08;19.20;99.90
13998;DHT22;7074;51.508;7.018;2022-07-18T05:29:35;19.30;99.90
13998;DHT22;7074;51.508;7.018;2022-07-18T05:32:03;19.50;99.90
13998;DHT22;7074;51.508;7.018;2022-07-18T05:34:30;19.50;99.90
13998;DHT22;7074;51.508;7.018;2022-07-18T05:36:59;19.60;99.90
13998;DHT22;7074;51.508;7.018;2022-07-18T05:39:26;19.80;99.90
13998;DHT22;7074;51.508;7.018;2022-07-18T05:41:54;19.90;99.90
13998;DHT22;7074;51.508;7.018;2022-07-18T05:44:23;20.10;99.90
13998;DHT22;7074;51.508;7.018;2022-07-18T05:46:51;20.10;99.90
13998;DHT22;7074;51.508;7.018;2022-07-18T05:49:18;20.30;99.90
13998;DHT22;7074;51.508;7.018;2022-07-18T05:51:45;20.50;99.90
13998;DHT22;7074;51.508;7.018;2022-07-18T05:54:14;20.60;99.90
13998;DHT22;7074;51.508;7.018;2022-07-18T05:56:46;20.70;99.90
13998;DHT22;7074;51.508;7.018;2022-07-18T05:59:13;20.80;99.90
13998;DHT22;7074;51.508;7.018;2022-07-18T06:01:41;20.90;99.90
13998;DHT22;7074;51.508;7.018;2022-07-18T06:04:08;21.00;99.90
13998;DHT22;7074;51.508;7.018;2022-07-18T06:06:36;21.00;99.90
13998;DHT22;7074;51.508;7.018;2022-07-18T06:09:04;21.10;99.90
13998;DHT22;7074;51.508;7.018;2022-07-18T06:11:33;21.30;99.90
13998;DHT22;7074;51.508;7.018;2022-07-18T06:14:00;21.30;99.90
13998;DHT22;7074;51.508;7.018;2022-07-18T06:16:28;21.50;99.90
13998;DHT22;7074;51.508;7.018;2022-07-18T06:18:55;21.50;99.90
13998;DHT22;7074;51.508;7.018;2022-07-18T06:21:23;21.50;99.90
13998;DHT22;7074;51.508;7.018;2022-07-18T06:23:50;21.80;99.90
13998;DHT22;7074;51.508;7.018;2022-07-18T06:26:17;21.80;99.90
13998;DHT22;7074;51.508;7.018;2022-07-18T06:28:46;21.70;99.90
13998;DHT22;7074;51.508;7.018;2022-07-18T06:31:14;22.00;99.90
13998;DHT22;7074;51.508;7.018;2022-07-18T06:33:42;22.20;99.90
13998;DHT22;7074;51.508;7.018;2022-07-18T06:36:09;22.50;99.50
13998;DHT22;7074;51.508;7.018;2022-07-18T06:38:37;22.70;98.70
13998;DHT22;7074;51.508;7.018;2022-07-18T06:41:05;23.00;98.70
13998;DHT22;7074;51.508;7.018;2022-07-18T06:43:33;23.20;97.90
13998;DHT22;7074;51.508;7.018;2022-07-18T06:46:04;23.30;96.70
13998;DHT22;7074;51.508;7.018;2022-07-18T06:48:32;23.50;96.70
13998;DHT22;7074;51.508;7.018;2022-07-18T06:51:00;23.50;96.20
13998;DHT22;7074;51.508;7.018;2022-07-18T06:53:28;23.60;96.40
13998;DHT22;7074;51.508;7.018;2022-07-18T06:55:55;23.80;96.60
13998;DHT22;7074;51.508;7.018;2022-07-18T06:58:22;23.90;95.20
13998;DHT22;7074;51.508;7.018;2022-07-18T07:00:50;24.00;95.30
13998;DHT22;7074;51.508;7.018;2022-07-18T07:03:19;24.00;94.90
13998;DHT22;7074;51.508;7.018;2022-07-18T07:05:46;24.20;95.00
13998;DHT22;7074;51.508;7.018;2022-07-18T07:08:13;24.10;93.70
13998;DHT22;7074;51.508;7.018;2022-07-18T07:10:41;24.10;93.30
13998;DHT22;7074;51.508;7.018;2022-07-18T07:13:08;24.20;93.30
13998;DHT22;7074;51.508;7.018;2022-07-18T07:15:35;24.40;93.40
13998;DHT22;7074;51.508;7.018;2022-07-18T07:18:03;24.60;93.00
13998;DHT22;7074;51.508;7.018;2022-07-18T07:20:31;24.90;92.40
13998;DHT22;7074;51.508;7.018;2022-07-18T07:22:59;25.10;92.00
13998;DHT22;7074;51.508;7.018;2022-07-18T07:25:30;25.30;91.30
13998;DHT22;7074;51.508;7.018;2022-07-18T07:27:57;25.50;91.10
13998;DHT22;7074;51.508;7.018;2022-07-18T07:30:25;25.70;90.00
13998;DHT22;7074;51.508;7.018;2022-07-18T07:32:53;25.50;85.60
13998;DHT22;7074;51.508;7.018;2022-07-18T07:35:20;25.70;88.20
13998;DHT22;7074;51.508;7.018;2022-07-18T07:37:51;26.00;87.70
13998;DHT22;7074;51.508;7.018;2022-07-18T07:40:19;26.20;85.10
13998;DHT22;7074;51.508;7.018;2022-07-18T07:42:46;26.30;83.10
13998;DHT22;7074;51.508;7.018;2022-07-18T07:45:14;26.40;79.30
13998;DHT22;7074;51.508;7.018;2022-07-18T07:47:42;26.60;78.80
13998;DHT22;7074;51.508;7.018;2022-07-18T07:50:11;26.70;76.80
13998;DHT22;7074;51.508;7.018;2022-07-18T07:52:38;26.90;77.90
13998;DHT22;7074;51.508;7.018;2022-07-18T07:55:07;26.90;75.80
13998;DHT22;7074;51.508;7.018;2022-07-18T07:57:35;27.00;74.00
13998;DHT22;7074;51.508;7.018;2022-07-18T08:00:04;27.20;71.40
13998;DHT22;7074;51.508;7.018;2022-07-18T08:02:38;27.30;68.70
13998;DHT22;7074;51.508;7.018;2022-07-18T08:05:16;27.40;68.10
13998;DHT22;7074;51.508;7.018;2022-07-18T08:07:43;27.60;64.10
13998;DHT22;7074;51.508;7.018;2022-07-18T08:10:12;27.80;65.40
13998;DHT22;7074;51.508;7.018;2022-07-18T08:12:40;27.90;63.20
13998;DHT22;7074;51.508;7.018;2022-07-18T08:15:09;28.00;63.10
13998;DHT22;7074;51.508;7.018;2022-07-18T08:17:36;28.10;63.40
13998;DHT22;7074;51.508;7.018;2022-07-18T08:20:04;28.20;62.30
13998;DHT22;7074;51.508;7.018;2022-07-18T08:22:32;28.10;60.20
13998;DHT22;7074;51.508;7.018;2022-07-18T08:25:00;28.20;59.40
13998;DHT22;7074;51.508;7.018;2022-07-18T08:27:30;28.30;59.10
13998;DHT22;7074;51.508;7.018;2022-07-18T08:29:57;28.40;58.50
13998;DHT22;7074;51.508;7.018;2022-07-18T08:32:24;28.50;58.10
13998;DHT22;7074;51.508;7.018;2022-07-18T08:34:51;28.60;57.80
13998;DHT22;7074;51.508;7.018;2022-07-18T08:37:19;28.70;57.30
13998;DHT22;7074;51.508;7.018;2022-07-18T08:39:47;28.80;57.50
13998;DHT22;7074;51.508;7.018;2022-07-18T08:42:16;28.80;56.20
13998;DHT22;7074;51.508;7.018;2022-07-18T08:44:47;28.90;54.80
13998;DHT22;7074;51.508;7.018;2022-07-18T08:47:17;29.00;53.40
13998;DHT22;7074;51.508;7.018;2022-07-18T08:49:44;29.10;54.10
13998;DHT22;7074;51.508;7.018;2022-07-18T08:52:12;29.20;54.00
13998;DHT22;7074;51.508;7.018;2022-07-18T08:54:41;29.10;51.80
13998;DHT22;7074;51.508;7.018;2022-07-18T08:57:09;29.20;52.00
13998;DHT22;7074;51.508;7.018;2022-07-18T08:59:36;29.40;53.40
13998;DHT22;7074;51.508;7.018;2022-07-18T09:02:05;29.50;51.50
13998;DHT22;7074;51.508;7.018;2022-07-18T09:04:34;29.50;51.30
13998;DHT22;7074;51.508;7.018;2022-07-18T09:07:03;29.40;49.30
13998;DHT22;7074;51.508;7.018;2022-07-18T09:09:31;29.60;50.70
13998;DHT22;7074;51.508;7.018;2022-07-18T09:12:00;29.70;51.20
13998;DHT22;7074;51.508;7.018;2022-07-18T09:14:30;29.60;49.80
13998;DHT22;7074;51.508;7.018;2022-07-18T09:17:07;29.80;51.90
13998;DHT22;7074;51.508;7.018;2022-07-18T09:19:35;29.80;50.00
13998;DHT22;7074;51.508;7.018;2022-07-18T09:22:16;30.00;51.30
13998;DHT22;7074;51.508;7.018;2022-07-18T09:24:53;30.10;49.80
13998;DHT22;7074;51.508;7.018;2022-07-18T09:27:26;29.90;48.00
13998;DHT22;7074;51.508;7.018;2022-07-18T09:33:07;30.20;50.00
13998;DHT22;7074;51.508;7.018;2022-07-18T09:35:37;30.30;48.70
13998;DHT22;7074;51.508;7.018;2022-07-18T09:38:06;30.50;47.90
13998;DHT22;7074;51.508;7.018;2022-07-18T09:40:35;30.70;47.30
13998;DHT22;7074;51.508;7.018;2022-07-18T09:43:04;30.50;46.20
13998;DHT22;7074;51.508;7.018;2022-07-18T09:45:33;30.40;46.50
13998;DHT22;7074;51.508;7.018;2022-07-18T09:48:04;30.60;46.90
13998;DHT22;7074;51.508;7.018;2022-07-18T09:50:34;30.70;46.20
13998;DHT22;7074;51.508;7.018;2022-07-18T09:53:07;30.90;46.60
13998;DHT22;7074;51.508;7.018;2022-07-18T09:55:35;31.00;45.90
13998;DHT22;7074;51.508;7.018;2022-07-18T09:58:05;31.00;45.10
13998;DHT22;7074;51.508;7.018;2022-07-18T10:00:35;31.20;45.00
13998;DHT22;7074;51.508;7.018;2022-07-18T10:03:05;31.20;45.00
13998;DHT22;7074;51.508;7.018;2022-07-18T10:05:34;30.90;44.40
13998;DHT22;7074;51.508;7.018;2022-07-18T10:08:04;30.90;44.90
13998;DHT22;7074;51.508;7.018;2022-07-18T10:10:32;31.10;45.80
13998;DHT22;7074;51.508;7.018;2022-07-18T10:13:01;31.10;45.50
13998;DHT22;7074;51.508;7.018;2022-07-18T10:15:30;31.30;45.00
13998;DHT22;7074;51.508;7.018;2022-07-18T10:17:58;31.40;44.40
13998;DHT22;7074;51.508;7.018;2022-07-18T10:20:38;31.10;44.80
13998;DHT22;7074;51.508;7.018;2022-07-18T10:23:13;31.40;45.00
13998;DHT22;7074;51.508;7.018;2022-07-18T10:25:42;31.60;44.60
13998;DHT22;7074;51.508;7.018;2022-07-18T10:28:11;31.80;44.10
13998;DHT22;7074;51.508;7.018;2022-07-18T10:30:43;31.90;42.60
13998;DHT22;7074;51.508;7.018;2022-07-18T10:33:39;32.00;42.90
13998;DHT22;7074;51.508;7.018;2022-07-18T10:36:10;32.10;43.00
13998;DHT22;7074;51.508;7.018;2022-07-18T10:38:39;31.90;41.80
13998;DHT22;7074;51.508;7.018;2022-07-18T10:41:27;31.90;42.70
13998;DHT22;7074;51.508;7.018;2022-07-18T10:43:54;32.00;42.30
13998;DHT22;7074;51.508;7.018;2022-07-18T10:46:22;32.10;42.40
13998;DHT22;7074;51.508;7.018;2022-07-18T10:48:56;32.20;42.00
13998;DHT22;7074;51.508;7.018;2022-07-18T10:51:32;32.20;42.10
13998;DHT22;7074;51.508;7.018;2022-07-18T10:54:10;32.30;41.40
13998;DHT22;7074;51.508;7.018;2022-07-18T10:57:05;32.40;41.10
13998;DHT22;7074;51.508;7.018;2022-07-18T11:02:30;32.60;40.80
13998;DHT22;7074;51.508;7.018;2022-07-18T11:04:58;32.50;40.50
13998;DHT22;7074;51.508;7.018;2022-07-18T11:07:25;32.00;39.40
13998;DHT22;7074;51.508;7.018;2022-07-18T11:09:52;32.40;40.40
13998;DHT22;7074;51.508;7.018;2022-07-18T11:12:23;32.60;38.90
13998;DHT22;7074;51.508;7.018;2022-07-18T11:15:14;32.60;39.40
13998;DHT22;7074;51.508;7.018;2022-07-18T11:17:58;32.60;38.00
13998;DHT22;7074;51.508;7.018;2022-07-18T11:20:38;32.70;38.70
13998;DHT22;7074;51.508;7.018;2022-07-18T11:23:17;32.70;37.30
13998;DHT22;7074;51.508;7.018;2022-07-18T11:25:45;32.80;37.30
13998;DHT22;7074;51.508;7.018;2022-07-18T11:28:14;33.00;37.20
13998;DHT22;7074;51.508;7.018;2022-07-18T11:30:42;33.10;38.40
13998;DHT22;7074;51.508;7.018;2022-07-18T11:33:24;33.30;38.10
13998;DHT22;7074;51.508;7.018;2022-07-18T11:35:52;33.30;37.00
13998;DHT22;7074;51.508;7.018;2022-07-18T11:38:28;33.30;37.00
13998;DHT22;7074;51.508;7.018;2022-07-18T11:40:55;33.50;38.20
13998;DHT22;7074;51.508;7.018;2022-07-18T11:43:26;33.70;38.30
13998;DHT22;7074;51.508;7.018;2022-07-18T11:46:04;33.80;37.70
13998;DHT22;7074;51.508;7.018;2022-07-18T11:48:32;33.80;37.10
13998;DHT22;7074;51.508;7.018;2022-07-18T11:50:59;33.80;37.30
13998;DHT22;7074;51.508;7.018;2022-07-18T11:53:27;33.90;38.10
13998;DHT22;7074;51.508;7.018;2022-07-18T11:55:55;34.10;37.70
13998;DHT22;7074;51.508;7.018;2022-07-18T11:58:23;34.00;38.20
13998;DHT22;7074;51.508;7.018;2022-07-18T12:00:51;34.20;37.90
13998;DHT22;7074;51.508;7.018;2022-07-18T12:03:25;34.30;36.60
13998;DHT22;7074;51.508;7.018;2022-07-18T12:05:53;34.50;37.50
13998;DHT22;7074;51.508;7.018;2022-07-18T12:08:25;34.50;38.00
13998;DHT22;7074;51.508;7.018;2022-07-18T12:11:06;34.70;37.10
13998;DHT22;7074;51.508;7.018;2022-07-18T12:13:46;34.40;37.50
13998;DHT22;7074;51.508;7.018;2022-07-18T12:16:39;34.60;38.30
13998;DHT22;7074;51.508;7.018;2022-07-18T12:19:07;34.80;37.10
13998;DHT22;7074;51.508;7.018;2022-07-18T12:21:41;34.60;36.80
13998;DHT22;7074;51.508;7.018;2022-07-18T12:24:34;34.80;37.10
13998;DHT22;7074;51.508;7.018;2022-07-18T12:27:17;35.20;36.80
13998;DHT22;7074;51.508;7.018;2022-07-18T12:30:00;35.20;36.20
13998;DHT22;7074;51.508;7.018;2022-07-18T12:32:35;35.50;36.30
13998;DHT22;7074;51.508;7.018;2022-07-18T12:35:05;35.50;36.00
13998;DHT22;7074;51.508;7.018;2022-07-18T12:37:32;35.50;36.00
13998;DHT22;7074;51.508;7.018;2022-07-18T12:40:02;35.50;35.70
13998;DHT22;7074;51.508;7.018;2022-07-18T12:42:31;35.60;35.10
13998;DHT22;7074;51.508;7.018;2022-07-18T12:45:00;35.90;35.40
13998;DHT22;7074;51.508;7.018;2022-07-18T12:47:27;35.90;34.90
13998;DHT22;7074;51.508;7.018;2022-07-18T12:49:55;36.00;34.60
13998;DHT22;7074;51.508;7.018;2022-07-18T12:52:22;36.20;35.10
13998;DHT22;7074;51.508;7.018;2022-07-18T12:54:50;35.80;34.00
13998;DHT22;7074;51.508;7.018;2022-07-18T12:57:18;36.10;34.70
13998;DHT22;7074;51.508;7.018;2022-07-18T12:59:47;36.00;34.70
13998;DHT22;7074;51.508;7.018;2022-07-18T13:02:16;35.90;34.10
13998;DHT22;7074;51.508;7.018;2022-07-18T13:04:44;35.90;33.90
13998;DHT22;7074;51.508;7.018;2022-07-18T13:07:11;36.10;34.30
13998;DHT22;7074;51.508;7.018;2022-07-18T13:09:39;36.40;34.00
13998;DHT22;7074;51.508;7.018;2022-07-18T13:12:06;36.30;33.50
13998;DHT22;7074;51.508;7.018;2022-07-18T13:14:34;36.10;32.60
13998;DHT22;7074;51.508;7.018;2022-07-18T13:17:01;36.30;33.30
13998;DHT22;7074;51.508;7.018;2022-07-18T13:19:30;36.20;33.10
13998;DHT22;7074;51.508;7.018;2022-07-18T13:21:58;36.40;34.80
13998;DHT22;7074;51.508;7.018;2022-07-18T13:24:25;36.10;33.60
13998;DHT22;7074;51.508;7.018;2022-07-18T13:26:53;36.00;33.60
13998;DHT22;7074;51.508;7.018;2022-07-18T13:29:21;36.50;34.20
13998;DHT22;7074;51.508;7.018;2022-07-18T13:31:49;36.80;33.80
13998;DHT22;7074;51.508;7.018;2022-07-18T13:34:18;36.80;33.10
13998;DHT22;7074;51.508;7.018;2022-07-18T13:36:49;36.70;32.70
13998;DHT22;7074;51.508;7.018;2022-07-18T13:39:17;36.60;32.80
13998;DHT22;7074;51.508;7.018;2022-07-18T13:41:45;36.70;33.40
13998;DHT22;7074;51.508;7.018;2022-07-18T13:44:13;36.60;32.90
13998;DHT22;7074;51.508;7.018;2022-07-18T13:46:41;36.60;33.40
13998;DHT22;7074;51.508;7.018;2022-07-18T13:49:09;36.70;33.60
13998;DHT22;7074;51.508;7.018;2022-07-18T13:51:37;36.90;34.20
13998;DHT22;7074;51.508;7.018;2022-07-18T13:54:06;37.20;33.20
13998;DHT22;7074;51.508;7.018;2022-07-18T13:56:33;37.50;33.30
13998;DHT22;7074;51.508;7.018;2022-07-18T13:59:01;37.60;32.80
13998;DHT22;7074;51.508;7.018;2022-07-18T14:01:28;37.70;32.90
13998;DHT22;7074;51.508;7.018;2022-07-18T14:03:55;37.80;33.00
13998;DHT22;7074;51.508;7.018;2022-07-18T14:06:22;37.60;31.90
13998;DHT22;7074;51.508;7.018;2022-07-18T14:08:49;37.40;32.60
13998;DHT22;7074;51.508;7.018;2022-07-18T14:11:18;37.60;32.40
13998;DHT22;7074;51.508;7.018;2022-07-18T14:13:45;37.70;32.10
13998;DHT22;7074;51.508;7.018;2022-07-18T14:16:13;37.50;32.00
13998;DHT22;7074;51.508;7.018;2022-07-18T14:18:41;36.80;32.80
13998;DHT22;7074;51.508;7.018;2022-07-18T14:21:08;36.70;32.90
13998;DHT22;7074;51.508;7.018;2022-07-18T14:23:35;36.90;32.70
13998;DHT22;7074;51.508;7.018;2022-07-18T14:26:03;36.80;32.80
13998;DHT22;7074;51.508;7.018;2022-07-18T14:28:31;37.20;32.90
13998;DHT22;7074;51.508;7.018;2022-07-18T14:30:59;37.20;32.80
13998;DHT22;7074;51.508;7.018;2022-07-18T14:33:26;37.50;33.10
13998;DHT22;7074;51.508;7.018;2022-07-18T14:35:54;37.60;32.70
13998;DHT22;7074;51.508;7.018;2022-07-18T14:38:21;37.70;32.30
13998;DHT22;7074;51.508;7.018;2022-07-18T14:40:48;37.80;31.80
13998;DHT22;7074;51.508;7.018;2022-07-18T14:43:16;37.50;31.70
13998;DHT22;7074;51.508;7.018;2022-07-18T14:45:44;37.40;31.60
13998;DHT22;7074;51.508;7.018;2022-07-18T14:48:12;37.50;31.40
13998;DHT22;7074;51.508;7.018;2022-07-18T14:50:39;37.30;31.60
13998;DHT22;7074;51.508;7.018;2022-07-18T14:53:06;37.70;31.90
13998;DHT22;7074;51.508;7.018;2022-07-18T14:55:34;37.90;32.10
13998;DHT22;7074;51.508;7.018;2022-07-18T14:58:01;38.10;32.20
13998;DHT22;7074;51.508;7.018;2022-07-18T15:00:29;38.10;31.70
13998;DHT22;7074;51.508;7.018;2022-07-18T15:02:57;38.10;31.70
13998;DHT22;7074;51.508;7.018;2022-07-18T15:05:25;38.00;31.30
13998;DHT22;7074;51.508;7.018;2022-07-18T15:07:52;38.10;32.00
13998;DHT22;7074;51.508;7.018;2022-07-18T15:10:19;38.20;31.40
13998;DHT22;7074;51.508;7.018;2022-07-18T15:12:46;38.20;31.50
13998;DHT22;7074;51.508;7.018;2022-07-18T15:15:13;37.50;31.20
13998;DHT22;7074;51.508;7.018;2022-07-18T15:17:41;37.60;31.30
13998;DHT22;7074;51.508;7.018;2022-07-18T15:20:11;37.50;32.00
13998;DHT22;7074;51.508;7.018;2022-07-18T15:22:39;37.30;31.40
13998;DHT22;7074;51.508;7.018;2022-07-18T15:25:07;37.20;32.40
13998;DHT22;7074;51.508;7.018;2022-07-18T15:27:34;37.60;32.60
13998;DHT22;7074;51.508;7.018;2022-07-18T15:30:02;37.80;31.80
13998;DHT22;7074;51.508;7.018;2022-07-18T15:32:29;37.90;31.60
13998;DHT22;7074;51.508;7.018;2022-07-18T15:34:56;38.20;31.70
13998;DHT22;7074;51.508;7.018;2022-07-18T15:37:25;38.20;31.20
13998;DHT22;7074;51.508;7.018;2022-07-18T15:39:52;38.30;31.80
13998;DHT22;7074;51.508;7.018;2022-07-18T15:42:19;38.40;31.70
13998;DHT22;7074;51.508;7.018;2022-07-18T15:44:46;38.40;31.20
13998;DHT22;7074;51.508;7.018;2022-07-18T15:47:13;38.40;31.20
13998;DHT22;7074;51.508;7.018;2022-07-18T15:49:41;38.50;31.30
13998;DHT22;7074;51.508;7.018;2022-07-18T15:52:08;38.60;30.90
13998;DHT22;7074;51.508;7.018;2022-07-18T15:54:37;38.50;30.50
13998;DHT22;7074;51.508;7.018;2022-07-18T15:57:04;38.60;31.00
13998;DHT22;7074;51.508;7.018;2022-07-18T15:59:33;38.50;31.10
13998;DHT22;7074;51.508;7.018;2022-07-18T16:02:00;38.50;31.60